This is the latest recevied weather packets stored in our database for station/object WA1OUI. If no packets are shown the sender has not sent any weather packets the latest 10 day(s).
| Time | Temp. | Humidity | Pressure | Rain* | Wind** | Luminosity | Snow |
|---|---|---|---|---|---|---|---|
| 1777651530 | 15° C | 41% | 1009.2 hPa | 0 mm | - | 811 W/m² | - |
| 1777651227 | 14.44° C | 39% | 1009.5 hPa | 0 mm | - | 824 W/m² | - |
| 1777650923 | 13.89° C | 38% | 1009.5 hPa | 0 mm | - | 130 W/m² | - |
| 1777650621 | 13.89° C | 38% | 1009.5 hPa | 0 mm | - | 465 W/m² | - |
| 1777650319 | 14.44° C | 40% | 1009.5 hPa | 0 mm | - | 867 W/m² | - |
| 1777650015 | 14.44° C | 40% | 1009.5 hPa | 0 mm | - | 840 W/m² | - |
| 1777649713 | 13.89° C | 39% | 1009.7 hPa | 0 mm | - | 800 W/m² | - |
| 1777649408 | 13.89° C | 40% | 1009.4 hPa | 0 mm | - | 776 W/m² | - |
| 1777649106 | 13.89° C | 40% | 1009.5 hPa | 0 mm | - | 780 W/m² | - |
| 1777648803 | 13.89° C | 41% | 1009.6 hPa | 0 mm | - | 770 W/m² | - |
| 1777648500 | 13.89° C | 41% | 1009.7 hPa | 0 mm | - | 808 W/m² | - |
| 1777648196 | 13.89° C | 41% | 1009.7 hPa | 0 mm | - | 761 W/m² | - |
| 1777647892 | 13.89° C | 44% | 1009.7 hPa | 0 mm | - | 750 W/m² | - |
| 1777647589 | 13.89° C | 44% | 1009.6 hPa | 0 mm | - | 746 W/m² | - |
| 1777647285 | 13.33° C | 44% | 1009.7 hPa | 0 mm | - | 729 W/m² | - |
| 1777646983 | 13.33° C | 44% | 1009.6 hPa | 0 mm | - | 717 W/m² | - |
| 1777646678 | 12.78° C | 43% | 1009.6 hPa | 0 mm | - | 208 W/m² | - |
| 1777646374 | 12.78° C | 45% | 1009.7 hPa | 0 mm | - | 78 W/m² | - |
| 1777646071 | 12.78° C | 44% | 1009.7 hPa | 0 mm | - | 707 W/m² | - |
| 1777645767 | 12.78° C | 44% | 1009.7 hPa | 0 mm | - | 512 W/m² | - |
| 1777645465 | 12.22° C | 46% | 1009.9 hPa | 0 mm | - | 306 W/m² | - |
| 1777645160 | 12.22° C | 46% | 1009.7 hPa | 0 mm | - | 192 W/m² | - |
| 1777644857 | 12.22° C | 49% | 1009.7 hPa | 0 mm | - | 323 W/m² | - |
| 1777644555 | 11.67° C | 50% | 1009.8 hPa | 0 mm | - | 499 W/m² | - |
| 1777644251 | 11.11° C | 53% | 1009.9 hPa | 0 mm | - | 255 W/m² | - |
* Rain latest hour (hover to see other rain measurements)
** Current wind speed in m/s (hover to see current wind gust speed)